createdAt,value
2022-08-07T00:01:43.311Z,100805.59
2022-08-07T00:06:33.066Z,100793.19
2022-08-07T00:11:47.974Z,100793.84
2022-08-07T00:17:02.051Z,100791.28
2022-08-07T00:22:04.419Z,100794.09
2022-08-07T00:27:07.750Z,100789.31
2022-08-07T00:32:13.989Z,100782.03
2022-08-07T00:37:17.504Z,100782.50
2022-08-07T00:42:19.225Z,100777.16
2022-08-07T00:48:09.460Z,100775.91
2022-08-07T00:52:53.301Z,100779.09
2022-08-07T00:57:55.688Z,100775.97
2022-08-07T01:10:05.317Z,100755.28
2022-08-07T01:14:44.999Z,100750.88
2022-08-07T01:19:54.163Z,100755.56
2022-08-07T01:24:57.057Z,100745.66
2022-08-07T01:30:00.707Z,100745.56
2022-08-07T01:35:03.431Z,100755.50
2022-08-07T01:40:06.900Z,100734.66
2022-08-07T01:45:18.512Z,100736.34
2022-08-07T01:50:28.851Z,100739.81
2022-08-07T01:55:37.494Z,100744.47
2022-08-07T02:00:45.394Z,100750.50
2022-08-07T02:06:08.941Z,100746.59
2022-08-07T02:11:30.678Z,100744.06
2022-08-07T02:16:52.417Z,100746.81
2022-08-07T02:21:58.884Z,100746.81
2022-08-07T02:27:02.919Z,100745.91
2022-08-07T02:32:07.515Z,100740.69
2022-08-07T02:37:14.516Z,100738.50
2022-08-07T02:42:19.103Z,100744.97
2022-08-07T02:47:23.433Z,100742.97
2022-08-07T02:52:47.761Z,100742.44
2022-08-07T02:57:53.055Z,100750.69
2022-08-07T03:02:55.531Z,100744.78
2022-08-07T03:08:08.117Z,100749.31
2022-08-07T03:13:19.536Z,100744.78
2022-08-07T03:18:22.680Z,100738.00
2022-08-07T03:24:20.658Z,100744.38
2022-08-07T03:29:03.582Z,100735.06
2022-08-07T03:34:07.917Z,100731.91
2022-08-07T03:39:13.306Z,100735.25
2022-08-07T03:44:15.757Z,100726.06
2022-08-07T03:49:24.729Z,100728.22
2022-08-07T03:54:35.954Z,100727.53
2022-08-07T04:00:01.574Z,100728.47
2022-08-07T04:05:07.387Z,100729.22
2022-08-07T04:10:15.630Z,100729.09
2022-08-07T04:15:21.231Z,100727.47
2022-08-07T04:20:25.715Z,100730.94
2022-08-07T04:25:29.297Z,100735.63
2022-08-07T04:30:39.624Z,100736.59
2022-08-07T04:35:51.048Z,100752.38
2022-08-07T04:40:56.516Z,100756.09
2022-08-07T04:46:12.396Z,100751.09
2022-08-07T04:51:28.759Z,100740.78
2022-08-07T04:58:15.615Z,100730.34
2022-08-07T05:02:20.855Z,100731.09
2022-08-07T05:07:36.822Z,100732.28
2022-08-07T05:12:51.344Z,100719.50
2022-08-07T05:18:13.087Z,100724.31
2022-08-07T05:23:23.214Z,100730.00
2022-08-07T05:28:40.499Z,100742.63
2022-08-07T05:33:51.395Z,100752.28
2022-08-07T05:40:06.066Z,100765.59
2022-08-07T05:44:30.219Z,100763.75
2022-08-07T05:49:37.193Z,100773.69
2022-08-07T05:54:53.835Z,100776.44
2022-08-07T06:00:01.190Z,100771.66
2022-08-07T06:05:15.412Z,100774.50
2022-08-07T06:10:17.803Z,100779.47
2022-08-07T06:15:22.296Z,100789.13
2022-08-07T06:20:49.841Z,100784.53
2022-08-07T06:26:05.957Z,100788.03
2022-08-07T06:31:08.845Z,100785.13
2022-08-07T06:36:13.140Z,100777.56
2022-08-07T06:42:01.063Z,100773.38
2022-08-07T06:47:10.134Z,100767.75
2022-08-07T06:52:16.083Z,100767.16
2022-08-07T06:57:39.859Z,100762.81
2022-08-07T07:02:57.558Z,100762.53
2022-08-07T07:08:06.920Z,100764.38
2022-08-07T07:13:41.600Z,100761.44
2022-08-07T07:18:48.136Z,100756.56
2022-08-07T07:24:08.229Z,100746.03
2022-08-07T07:29:55.868Z,100749.56
2022-08-07T07:34:41.001Z,100756.34
2022-08-07T07:39:54.604Z,100738.69
2022-08-07T07:44:59.897Z,100728.09
2022-08-07T07:50:34.580Z,100722.19
2022-08-07T07:55:25.507Z,100713.97
2022-08-07T08:00:40.299Z,100711.09
2022-08-07T08:05:54.987Z,100694.56
2022-08-07T08:10:58.056Z,100689.59
2022-08-07T08:16:02.662Z,100688.25
2022-08-07T08:21:07.532Z,100680.97
2022-08-07T08:26:31.356Z,100686.06
2022-08-07T08:32:17.258Z,100677.09
2022-08-07T08:37:02.927Z,100672.69
2022-08-07T08:42:11.755Z,100662.44
2022-08-07T08:47:22.572Z,100665.72
2022-08-07T08:52:36.190Z,100654.69
2022-08-07T08:57:59.048Z,100651.53
2022-08-07T09:03:15.988Z,100644.50
2022-08-07T09:08:57.918Z,100636.59
2022-08-07T09:14:16.011Z,100632.97
2022-08-07T09:19:51.169Z,100628.84
2022-08-07T09:25:07.163Z,100626.31
2022-08-07T09:30:17.547Z,100616.69
2022-08-07T09:36:03.201Z,100618.22
2022-08-07T09:41:36.469Z,100606.25
2022-08-07T09:47:52.126Z,100610.47
2022-08-07T09:53:02.233Z,100592.78
2022-08-07T09:58:32.804Z,100586.50
2022-08-07T10:04:06.536Z,100580.88
2022-08-07T10:09:59.383Z,100566.44
2022-08-07T10:15:18.532Z,100554.28
2022-08-07T10:20:39.489Z,100554.41
2022-08-07T10:26:25.896Z,100541.88
2022-08-07T10:31:31.430Z,100538.84
2022-08-07T10:37:12.336Z,100531.09
2022-08-07T10:42:39.417Z,100534.63
2022-08-07T10:47:53.960Z,100526.34
2022-08-07T10:53:13.185Z,100527.25
2022-08-07T10:58:40.403Z,100519.28
2022-08-07T11:04:16.485Z,100525.94
2022-08-07T11:10:10.158Z,100517.94
2022-08-07T11:15:17.481Z,100513.09
2022-08-07T11:20:24.519Z,100502.25
2022-08-07T11:25:42.604Z,100489.03
2022-08-07T11:30:55.941Z,100485.59
2022-08-07T11:36:20.452Z,100483.03
2022-08-07T11:42:02.036Z,100466.75
2022-08-07T11:47:38.538Z,100464.88
2022-08-07T11:53:06.538Z,100465.47
2022-08-07T11:58:21.064Z,100460.00
2022-08-07T12:03:53.211Z,100460.00
2022-08-07T12:09:16.215Z,100454.28
2022-08-07T12:14:27.307Z,100460.19
2022-08-07T12:20:10.498Z,100460.06
2022-08-07T12:26:23.506Z,100463.63
2022-08-07T12:32:01.953Z,100447.03
2022-08-07T12:37:22.884Z,100439.06
2022-08-07T12:42:28.608Z,100434.25
2022-08-07T12:47:49.172Z,100436.47
2022-08-07T12:52:59.432Z,100447.59
2022-08-07T12:58:06.123Z,100429.91
2022-08-07T13:03:59.197Z,100426.56
2022-08-07T13:09:12.555Z,100418.47
2022-08-07T13:15:15.703Z,100418.59
2022-08-07T13:20:41.060Z,100407.66
2022-08-07T13:26:00.616Z,100408.06
2022-08-07T13:31:55.104Z,100405.00
2022-08-07T13:37:22.066Z,100411.22
2022-08-07T13:42:25.876Z,100391.78
2022-08-07T13:48:06.304Z,100377.69
2022-08-07T13:52:55.338Z,100380.84
2022-08-07T13:58:27.870Z,100375.16
2022-08-07T14:04:05.250Z,100380.00
2022-08-07T14:09:04.751Z,100370.09
2022-08-07T14:14:12.129Z,100372.97
2022-08-07T14:20:42.554Z,100351.31
2022-08-07T14:24:53.177Z,100356.94
2022-08-07T14:30:08.059Z,100353.72
2022-08-07T14:35:45.125Z,100345.72
2022-08-07T14:40:49.490Z,100328.03
2022-08-07T14:45:57.393Z,100332.19
2022-08-07T14:51:05.763Z,100322.56
2022-08-07T15:01:42.793Z,100321.56
2022-08-07T15:06:53.462Z,100320.88
2022-08-07T15:12:01.286Z,100313.66
2022-08-07T15:17:14.247Z,100308.88
2022-08-07T15:22:29.405Z,100307.72
2022-08-07T15:27:39.737Z,100312.22
2022-08-07T15:33:05.464Z,100313.22
2022-08-07T15:44:03.106Z,100306.09
2022-08-07T15:49:13.162Z,100298.59
2022-08-07T15:54:16.790Z,100285.31
2022-08-07T15:59:20.430Z,100284.06
2022-08-07T16:04:44.155Z,100287.16
2022-08-07T16:10:05.662Z,100276.97
2022-08-07T16:15:55.681Z,100270.50
2022-08-07T16:21:53.727Z,100264.28
2022-08-07T16:26:30.413Z,100272.88
2022-08-07T16:31:57.100Z,100273.00
2022-08-07T16:44:06.130Z,100268.88
2022-08-07T16:49:10.445Z,100269.75
2022-08-07T16:54:38.077Z,100273.81
2022-08-07T17:00:05.046Z,100273.38
2022-08-07T17:06:19.380Z,100264.94
2022-08-07T17:11:22.789Z,100259.19
2022-08-07T17:16:40.168Z,100262.44
2022-08-07T17:21:50.720Z,100260.13
2022-08-07T17:27:32.724Z,100263.44
2022-08-07T17:32:52.421Z,100271.78
2022-08-07T17:38:33.441Z,100266.13
2022-08-07T17:44:02.726Z,100266.94
2022-08-07T17:49:45.472Z,100265.19
2022-08-07T17:54:55.518Z,100262.56
2022-08-07T18:00:05.527Z,100264.66
2022-08-07T18:05:21.245Z,100267.09
2022-08-07T18:10:36.982Z,100274.81
2022-08-07T18:16:10.038Z,100279.03
2022-08-07T18:21:51.758Z,100281.81
2022-08-07T18:27:17.304Z,100276.34
2022-08-07T18:33:10.731Z,100286.88
2022-08-07T18:38:59.166Z,100295.25
2022-08-07T18:43:57.247Z,100307.34
2022-08-07T18:50:30.207Z,100311.03
2022-08-07T18:55:40.536Z,100318.72
2022-08-07T19:00:54.234Z,100336.13
2022-08-07T19:06:05.067Z,100329.09
2022-08-07T19:11:35.946Z,100336.50
2022-08-07T19:17:00.719Z,100341.16
2022-08-07T19:22:34.176Z,100353.22
2022-08-07T19:28:29.555Z,100361.97
2022-08-07T19:33:12.891Z,100355.44
2022-08-07T19:38:17.843Z,100365.34
2022-08-07T19:43:49.976Z,100373.47
2022-08-07T19:48:57.211Z,100379.94
2022-08-07T19:54:32.024Z,100386.69
2022-08-07T19:59:40.482Z,100390.22
2022-08-07T20:04:49.294Z,100392.63
2022-08-07T20:10:34.330Z,100400.41
2022-08-07T20:15:22.465Z,100398.81
2022-08-07T20:20:26.842Z,100401.69
2022-08-07T20:25:32.886Z,100407.09
2022-08-07T20:30:46.703Z,100412.97
2022-08-07T20:35:54.696Z,100406.41
2022-08-07T20:41:08.221Z,100415.19
2022-08-07T20:46:26.777Z,100416.28
2022-08-07T20:51:35.803Z,100419.53
2022-08-07T20:56:48.072Z,100424.31
2022-08-07T21:01:54.858Z,100430.31
2022-08-07T21:07:04.341Z,100434.38
2022-08-07T21:12:28.646Z,100452.97
2022-08-07T21:18:01.977Z,100457.25
2022-08-07T21:23:08.449Z,100466.88
2022-08-07T21:28:48.014Z,100465.47
2022-08-07T21:34:02.341Z,100463.78
2022-08-07T21:39:46.970Z,100463.59
2022-08-07T21:44:56.723Z,100471.94
2022-08-07T21:50:07.676Z,100469.41
2022-08-07T22:02:06.127Z,100473.94
2022-08-07T22:07:23.269Z,100469.06
2022-08-07T22:12:51.088Z,100476.00
2022-08-07T22:18:04.715Z,100472.38
2022-08-07T22:23:21.472Z,100487.03
2022-08-07T22:28:33.734Z,100490.97
2022-08-07T22:33:56.747Z,100490.59
2022-08-07T22:39:05.264Z,100490.94
2022-08-07T22:44:13.040Z,100484.13
2022-08-07T22:49:20.069Z,100492.75
2022-08-07T22:54:41.914Z,100489.59
2022-08-07T23:00:00.754Z,100491.56
2022-08-07T23:06:09.320Z,100497.09
2022-08-07T23:10:54.787Z,100497.56
2022-08-07T23:16:06.726Z,100501.03
2022-08-07T23:21:30.182Z,100507.78
2022-08-07T23:27:04.541Z,100494.53
2022-08-07T23:34:23.957Z,100493.78
2022-08-07T23:38:19.504Z,100488.84
2022-08-07T23:43:58.164Z,100497.72
2022-08-07T23:49:15.564Z,100494.28
2022-08-07T23:54:44.126Z,100493.03
